Time;durP1;ratioP1;P1;durP2;ratioP2;P2;SDS_P1;SDS_P2;PMS_P1;PMS_P2;Temp;Humidity;BMP_temperature;BMP_pressure;BME280_temperature;BME280_humidity;BME280_pressure;Samples;Min_cycle;Max_cycle;Signal;HPM_P1;HPM_P2
2022/12/13 00:00:13;;;;;;;18.08;10.23;;;-3.10;99.90;;;;;;5075053;28;20021;-76
2022/12/13 00:02:43;;;;;;;18.83;10.63;;;-3.20;99.90;;;;;;5074940;28;20021;-77
2022/12/13 00:05:09;;;;;;;27.17;12.95;;;-3.20;99.90;;;;;;5076173;28;20043;-76
2022/12/13 00:07:35;;;;;;;31.67;15.00;;;-3.20;99.90;;;;;;5074779;28;20017;-76
2022/12/13 00:10:02;;;;;;;16.25;9.93;;;-3.20;99.90;;;;;;5076295;28;20496;-76
2022/12/13 00:12:28;;;;;;;32.47;14.45;;;-3.30;99.90;;;;;;5076035;28;20025;-76
2022/12/13 00:14:53;;;;;;;53.50;22.80;;;-3.30;99.90;;;;;;5074647;28;20491;-76
2022/12/13 00:17:19;;;;;;;19.95;11.15;;;-3.30;99.90;;;;;;5074687;28;20017;-77
2022/12/13 00:19:46;;;;;;;32.60;17.00;;;-3.30;99.90;;;;;;5055765;28;20029;-76
2022/12/13 00:22:12;;;;;;;18.42;9.70;;;-3.40;99.90;;;;;;5054681;28;20021;-77
2022/12/13 00:24:37;;;;;;;19.92;10.23;;;-3.40;99.90;;;;;;5055577;28;20079;-78
2022/12/13 00:27:04;;;;;;;24.83;12.45;;;-3.40;99.90;;;;;;5054556;28;20386;-78
2022/12/13 00:29:29;;;;;;;46.58;20.55;;;-3.40;99.90;;;;;;5055602;28;20445;-76
2022/12/13 00:31:55;;;;;;;19.77;9.82;;;-3.40;99.90;;;;;;5054475;28;20013;-76
2022/12/13 00:34:21;;;;;;;21.30;11.57;;;-3.40;99.90;;;;;;5055605;28;20044;-77
2022/12/13 00:36:47;;;;;;;20.63;10.63;;;-3.40;99.90;;;;;;5054458;28;20021;-76
2022/12/13 00:39:15;;;;;;;29.13;14.07;;;-3.40;99.90;;;;;;5054325;28;20025;-76
2022/12/13 00:41:42;;;;;;;21.63;10.32;;;-3.40;99.90;;;;;;5053966;28;20514;-78
2022/12/13 00:44:10;;;;;;;15.15;8.18;;;-3.40;99.90;;;;;;5054138;28;20025;-75
2022/12/13 00:46:36;;;;;;;15.55;9.93;;;-3.40;99.90;;;;;;5055356;28;20035;-78
2022/12/13 00:49:01;;;;;;;23.83;10.43;;;-3.40;99.90;;;;;;5059930;28;20020;-77
2022/12/13 00:51:29;;;;;;;15.00;9.20;;;-3.50;99.90;;;;;;5075420;28;20371;-76
2022/12/13 00:53:55;;;;;;;20.25;9.75;;;-3.50;99.90;;;;;;5073890;28;20124;-75
2022/12/13 00:56:24;;;;;;;23.20;12.50;;;-3.50;99.90;;;;;;5075371;28;20092;-76
2022/12/13 00:58:50;;;;;;;25.08;11.95;;;-3.50;99.90;;;;;;5074006;28;20116;-77
2022/12/13 01:01:18;;;;;;;27.33;12.32;;;-3.50;99.90;;;;;;5075417;28;20039;-77
2022/12/13 01:03:44;;;;;;;34.50;14.55;;;-3.60;99.90;;;;;;5074861;28;20040;-77
2022/12/13 01:06:12;;;;;;;29.40;14.13;;;-3.60;99.90;;;;;;5075209;28;20032;-75
2022/12/13 01:08:38;;;;;;;22.88;11.85;;;-3.50;99.90;;;;;;5074806;28;20429;-77
2022/12/13 01:11:04;;;;;;;14.13;8.65;;;-3.60;99.90;;;;;;5074686;28;20032;-76
2022/12/13 01:13:30;;;;;;;40.97;14.45;;;-3.60;99.90;;;;;;5073617;28;20028;-77
2022/12/13 01:15:56;;;;;;;20.92;9.10;;;-3.60;99.90;;;;;;5073644;28;20035;-77
2022/12/13 01:18:21;;;;;;;18.42;10.77;;;-3.60;99.90;;;;;;5063291;28;20029;-76
2022/12/13 01:20:58;;;;;;;23.95;11.40;;;-3.60;99.90;;;;;;5053403;28;20033;-77
2022/12/13 01:23:25;;;;;;;31.10;15.30;;;-3.60;99.90;;;;;;5054751;28;20021;-77
2022/12/13 01:25:51;;;;;;;17.85;11.35;;;-3.50;99.90;;;;;;5054697;28;20143;-76
2022/12/13 01:28:17;;;;;;;21.50;12.00;;;-3.50;99.90;;;;;;5054753;28;20047;-76
2022/12/13 01:30:42;;;;;;;19.83;11.75;;;-3.50;99.90;;;;;;5053319;28;20021;-76
2022/12/13 01:33:08;;;;;;;26.13;13.32;;;-3.60;99.90;;;;;;5053363;28;20475;-77
2022/12/13 01:35:34;;;;;;;23.40;12.80;;;-3.60;99.90;;;;;;5053228;28;20021;-75
2022/12/13 01:38:00;;;;;;;18.30;10.77;;;-3.60;99.90;;;;;;5054526;28;20509;-76
2022/12/13 01:40:26;;;;;;;19.73;11.90;;;-3.60;99.90;;;;;;5053091;28;20029;-76
2022/12/13 01:42:51;;;;;;;19.73;11.18;;;-3.70;99.90;;;;;;5053200;28;20057;-77
2022/12/13 01:45:26;;;;;;;26.90;12.13;;;-3.70;99.90;;;;;;5054274;28;20041;-75
2022/12/13 01:48:01;;;;;;;23.63;11.90;;;-3.70;99.90;;;;;;5054391;28;20107;-76
2022/12/13 01:50:37;;;;;;;22.75;11.35;;;-3.90;99.90;;;;;;5069214;28;20028;-76
2022/12/13 01:53:06;;;;;;;17.25;11.40;;;-3.90;99.90;;;;;;5072949;28;20127;-77
2022/12/13 01:55:36;;;;;;;15.55;10.55;;;-3.90;99.90;;;;;;5074211;28;20028;-77
2022/12/13 01:58:03;;;;;;;22.23;11.35;;;-4.00;99.90;;;;;;5074045;28;20023;-75
2022/12/13 02:00:29;;;;;;;23.40;11.85;;;-4.00;99.90;;;;;;5072735;28;20017;-75
2022/12/13 02:02:58;;;;;;;19.45;11.23;;;-4.00;99.90;;;;;;5073946;28;20028;-76
2022/12/13 02:05:32;;;;;;;17.92;10.73;;;-4.00;99.90;;;;;;5073822;28;20558;-77
2022/12/13 02:08:00;;;;;;;22.02;11.80;;;-4.00;99.90;;;;;;5072677;28;20573;-77
2022/12/13 02:10:26;;;;;;;26.13;12.43;;;-4.00;99.90;;;;;;5074050;28;20020;-75
2022/12/13 02:12:52;;;;;;;18.80;10.65;;;-4.00;99.90;;;;;;5072439;28;20016;-78
2022/12/13 02:15:19;;;;;;;18.95;9.23;;;-4.00;99.90;;;;;;5073729;28;20017;-75
2022/12/13 02:17:52;;;;;;;22.33;10.68;;;-4.10;99.90;;;;;;5066911;28;20025;-75
2022/12/13 02:20:41;;;;;;;18.83;10.57;;;-4.00;99.90;;;;;;5053389;28;20035;-75
2022/12/13 02:23:10;;;;;;;14.85;9.02;;;-4.00;99.90;;;;;;5053568;28;20025;-76
2022/12/13 02:26:00;;;;;;;15.02;9.95;;;-4.10;99.90;;;;;;5052143;28;20489;-76
2022/12/13 02:28:32;;;;;;;13.93;8.63;;;-4.00;99.90;;;;;;5053580;28;20054;-75
2022/12/13 02:31:29;;;;;;;16.52;9.90;;;-4.10;99.90;;;;;;5052137;28;20029;-77
2022/12/13 02:33:58;;;;;;;15.48;9.18;;;-4.10;99.90;;;;;;5052729;28;20033;-77
2022/12/13 02:36:40;;;;;;;19.92;9.32;;;-4.10;99.90;;;;;;5053388;28;20025;-78
2022/12/13 02:39:23;;;;;;;17.55;10.60;;;-4.10;99.90;;;;;;5053544;28;20036;-77
2022/12/13 02:41:53;;;;;;;15.23;8.75;;;-4.10;99.90;;;;;;5053266;28;20514;-77
2022/12/13 02:44:38;;;;;;;15.95;9.90;;;-4.10;99.90;;;;;;5053480;28;20432;-78
2022/12/13 02:47:13;;;;;;;16.75;9.38;;;-4.10;99.90;;;;;;5053057;28;20017;-76
2022/12/13 02:49:43;;;;;;;12.85;8.25;;;-4.10;99.90;;;;;;5053243;28;20475;-76
2022/12/13 02:52:11;;;;;;;16.70;9.30;;;-4.20;99.90;;;;;;5053200;28;20056;-78
2022/12/13 02:54:37;;;;;;;14.20;8.23;;;-4.10;99.90;;;;;;5053250;28;20029;-78
2022/12/13 02:57:02;;;;;;;14.40;8.82;;;-4.10;99.90;;;;;;5053092;28;20043;-77
2022/12/13 02:59:36;;;;;;;13.90;8.13;;;-4.10;99.90;;;;;;5051908;28;20393;-76
2022/12/13 03:02:28;;;;;;;13.93;8.63;;;-4.10;99.90;;;;;;5051913;28;20021;-77
2022/12/13 03:08:11;;;;;;;11.75;7.55;;;-4.10;99.90;;;;;;5052894;28;20510;-77
2022/12/13 03:11:04;;;;;;;16.33;9.93;;;-4.20;99.90;;;;;;5052863;28;20486;-77
2022/12/13 03:13:36;;;;;;;13.57;8.52;;;-4.10;99.90;;;;;;5048516;28;20101;-76
2022/12/13 03:16:08;;;;;;;14.30;7.13;;;-4.10;99.90;;;;;;5051735;28;20070;-77
2022/12/13 03:18:35;;;;;;;14.38;8.85;;;-4.10;99.90;;;;;;5052847;28;20151;-76
2022/12/13 03:21:04;;;;;;;13.73;7.88;;;-4.20;99.90;;;;;;5052843;28;20025;-76
2022/12/13 03:23:31;;;;;;;13.63;7.72;;;-4.10;99.90;;;;;;5052897;28;20382;-76
2022/12/13 03:26:18;;;;;;;14.02;8.13;;;-4.20;99.90;;;;;;5051524;28;20402;-78
2022/12/13 03:28:44;;;;;;;14.00;8.30;;;-4.20;99.90;;;;;;5052615;28;20049;-77
2022/12/13 03:31:10;;;;;;;14.68;7.90;;;-4.20;99.90;;;;;;5051491;28;20053;-78
2022/12/13 03:33:37;;;;;;;12.02;7.25;;;-4.20;99.90;;;;;;5055686;28;20471;-77
2022/12/13 03:36:04;;;;;;;12.43;7.35;;;-4.20;99.90;;;;;;5056769;28;20032;-77
2022/12/13 03:38:30;;;;;;;14.55;7.40;;;-4.20;99.90;;;;;;5056814;28;20025;-77
2022/12/13 03:41:09;;;;;;;15.23;7.47;;;-4.20;99.90;;;;;;5055341;28;20032;-76
2022/12/13 03:43:34;;;;;;;16.42;9.82;;;-4.20;99.90;;;;;;5056791;28;20094;-76
2022/12/13 03:46:00;;;;;;;12.73;7.13;;;-4.20;99.90;;;;;;5055308;28;20024;-77
2022/12/13 03:48:26;;;;;;;15.15;8.27;;;-4.20;99.90;;;;;;5055332;28;20109;-77
2022/12/13 03:50:53;;;;;;;11.02;7.05;;;-4.20;99.90;;;;;;5055113;28;20486;-77
2022/12/13 03:53:20;;;;;;;16.85;8.90;;;-4.20;99.90;;;;;;5055300;28;20087;-76
2022/12/13 03:55:46;;;;;;;17.10;10.68;;;-4.20;99.90;;;;;;5055012;28;20106;-77
2022/12/13 03:58:11;;;;;;;13.25;7.80;;;-4.20;99.90;;;;;;5056413;28;20021;-77
2022/12/13 04:00:37;;;;;;;17.10;8.20;;;-4.20;99.90;;;;;;5054957;28;20021;-76
2022/12/13 04:03:03;;;;;;;14.02;8.05;;;-4.20;99.90;;;;;;5056292;28;20029;-78
2022/12/13 04:05:29;;;;;;;15.75;9.50;;;-4.20;99.90;;;;;;5054938;28;20047;-78
2022/12/13 04:07:55;;;;;;;12.18;7.85;;;-4.30;99.90;;;;;;5056105;28;20432;-78
2022/12/13 04:10:21;;;;;;;14.90;8.50;;;-4.20;99.90;;;;;;5054907;28;20112;-78
2022/12/13 04:15:30;;;;;;;19.48;7.80;;;-4.30;99.90;;;;;;5056363;28;20063;-76
2022/12/13 04:17:56;;;;;;;13.90;9.75;;;-4.30;99.90;;;;;;5055903;28;20044;-78
2022/12/13 04:20:21;;;;;;;17.08;8.93;;;-4.30;99.90;;;;;;5056034;28;20036;-77
2022/12/13 04:22:47;;;;;;;13.75;8.20;;;-4.30;99.90;;;;;;5055920;28;20096;-78
2022/12/13 04:25:12;;;;;;;17.80;8.73;;;-4.30;99.90;;;;;;5055597;28;20041;-76
2022/12/13 04:27:38;;;;;;;14.18;10.00;;;-4.30;99.90;;;;;;5055660;28;20017;-76
2022/12/13 04:30:05;;;;;;;15.15;8.00;;;-4.30;99.90;;;;;;5055816;28;20021;-77
2022/12/13 04:32:31;;;;;;;12.10;8.65;;;-4.30;99.90;;;;;;5054367;28;20048;-76
2022/12/13 04:34:56;;;;;;;16.25;9.15;;;-4.30;99.90;;;;;;5054403;28;20033;-77
2022/12/13 04:37:22;;;;;;;13.93;9.20;;;-4.30;99.90;;;;;;5055642;28;20021;-77
2022/12/13 04:39:48;;;;;;;16.90;8.85;;;-4.40;99.90;;;;;;5054356;28;20094;-76
2022/12/13 04:42:13;;;;;;;14.82;8.65;;;-4.30;99.90;;;;;;5054190;28;20053;-76
2022/12/13 04:44:39;;;;;;;15.98;9.05;;;-4.40;99.90;;;;;;5053139;28;20098;-76
2022/12/13 04:47:05;;;;;;;15.20;8.18;;;-4.30;99.90;;;;;;5055270;28;20024;-78
2022/12/13 04:49:31;;;;;;;14.75;9.40;;;-4.30;99.90;;;;;;5054049;28;20025;-77
2022/12/13 04:51:57;;;;;;;15.73;9.18;;;-4.30;99.90;;;;;;5054076;28;20536;-78
2022/12/13 04:54:23;;;;;;;17.60;9.93;;;-4.40;99.90;;;;;;5055383;28;20029;-76
2022/12/13 04:56:48;;;;;;;18.98;10.07;;;-4.30;99.90;;;;;;5053974;28;20059;-76
2022/12/13 04:59:15;;;;;;;15.02;10.07;;;-4.30;99.90;;;;;;5054057;28;20024;-77
2022/12/13 05:01:40;;;;;;;19.77;10.65;;;-4.30;99.90;;;;;;5053843;28;20032;-75
2022/12/13 05:04:06;;;;;;;16.90;8.90;;;-4.30;99.90;;;;;;5053902;28;20043;-75
2022/12/13 05:06:32;;;;;;;17.05;10.00;;;-4.30;99.90;;;;;;5053855;28;20120;-77
2022/12/13 05:08:57;;;;;;;17.17;9.57;;;-4.30;99.90;;;;;;5053922;28;20108;-76
2022/12/13 05:11:23;;;;;;;20.20;11.13;;;-4.30;99.90;;;;;;5053837;28;20130;-77
2022/12/13 05:13:49;;;;;;;20.02;8.77;;;-4.30;99.90;;;;;;5054760;28;20029;-77
2022/12/13 05:16:15;;;;;;;20.77;9.98;;;-4.30;99.90;;;;;;5054964;28;20418;-75
2022/12/13 05:18:41;;;;;;;18.65;9.65;;;-4.30;99.90;;;;;;5053545;28;20040;-76
2022/12/13 05:21:09;;;;;;;23.52;11.35;;;-4.30;99.90;;;;;;5054833;28;20390;-78
2022/12/13 05:23:35;;;;;;;19.42;9.38;;;-4.30;99.90;;;;;;5053419;28;20402;-77
2022/12/13 05:26:01;;;;;;;15.10;10.65;;;-4.30;99.90;;;;;;5054779;28;20475;-77
2022/12/13 05:28:27;;;;;;;19.58;10.77;;;-4.30;99.90;;;;;;5054710;28;20105;-77
2022/12/13 05:30:55;;;;;;;16.60;9.55;;;-4.20;99.90;;;;;;5054709;28;20078;-77
2022/12/13 05:33:21;;;;;;;18.60;10.93;;;-4.30;99.90;;;;;;5053164;28;20057;-76
2022/12/13 05:35:47;;;;;;;16.27;9.57;;;-4.30;99.90;;;;;;5053330;28;20061;-76
2022/12/13 05:38:13;;;;;;;17.52;11.27;;;-4.30;99.90;;;;;;5053232;28;20048;-78
2022/12/13 05:40:39;;;;;;;16.48;9.73;;;-4.30;99.90;;;;;;5054472;28;20021;-76
2022/12/13 05:43:04;;;;;;;18.70;9.50;;;-4.20;99.90;;;;;;5054275;28;20049;-76
2022/12/13 05:45:31;;;;;;;16.95;9.75;;;-4.30;99.90;;;;;;5053005;28;20121;-75
2022/12/13 05:47:57;;;;;;;18.85;10.48;;;-4.30;99.90;;;;;;5053072;28;20044;-76
2022/12/13 05:50:23;;;;;;;21.77;11.88;;;-4.30;99.90;;;;;;5052695;28;20510;-76
2022/12/13 05:52:48;;;;;;;21.35;11.48;;;-4.30;99.90;;;;;;5052830;28;20398;-77
2022/12/13 05:55:14;;;;;;;20.33;11.57;;;-4.30;99.90;;;;;;5054048;28;20032;-77
2022/12/13 05:57:39;;;;;;;21.08;11.60;;;-4.30;99.90;;;;;;5052617;28;20066;-77
2022/12/13 06:00:07;;;;;;;24.30;13.73;;;-4.20;99.90;;;;;;5054111;28;20104;-76
2022/12/13 06:02:37;;;;;;;26.52;14.20;;;-4.30;99.90;;;;;;5052336;28;20068;-76
2022/12/13 06:05:04;;;;;;;26.38;13.50;;;-4.30;99.90;;;;;;5052733;28;20423;-76
2022/12/13 06:07:30;;;;;;;28.38;13.65;;;-4.30;99.90;;;;;;5052734;28;20478;-77
2022/12/13 06:09:55;;;;;;;24.05;13.18;;;-4.20;99.90;;;;;;5053811;28;20024;-76
2022/12/13 06:12:21;;;;;;;27.48;14.93;;;-4.30;99.90;;;;;;5052704;28;20087;-77
2022/12/13 06:14:46;;;;;;;26.73;14.00;;;-4.30;99.90;;;;;;5053675;28;20021;-76
2022/12/13 06:17:12;;;;;;;40.85;18.35;;;-4.20;99.90;;;;;;5047441;28;20065;-77
2022/12/13 06:19:38;;;;;;;36.20;17.88;;;-4.20;99.90;;;;;;5064504;28;20073;-76
2022/12/13 06:22:04;;;;;;;29.80;15.75;;;-4.30;99.90;;;;;;5064161;28;20033;-76
2022/12/13 06:24:30;;;;;;;45.22;19.48;;;-4.20;99.90;;;;;;5048020;28;20474;-76
2022/12/13 06:26:55;;;;;;;25.73;12.18;;;-4.20;99.90;;;;;;5068873;28;20035;-78
2022/12/13 06:29:22;;;;;;;25.15;13.00;;;-4.30;99.90;;;;;;5073310;28;20474;-76
2022/12/13 06:32:00;;;;;;;18.98;11.45;;;-4.30;99.90;;;;;;5071932;28;20037;-78
2022/12/13 06:34:26;;;;;;;39.08;14.75;;;-4.30;99.90;;;;;;5069565;28;20454;-78
2022/12/13 06:36:52;;;;;;;35.22;14.30;;;-4.30;99.90;;;;;;5067861;28;20101;-76
2022/12/13 06:39:18;;;;;;;29.77;14.02;;;-4.30;99.90;;;;;;5063124;28;20454;-77
2022/12/13 06:41:44;;;;;;;27.27;13.23;;;-4.30;99.90;;;;;;5050547;28;20073;-76
2022/12/13 06:44:10;;;;;;;57.83;20.27;;;-4.30;99.90;;;;;;5046444;28;20511;-78
2022/12/13 06:46:36;;;;;;;23.60;12.98;;;-4.30;99.90;;;;;;5048404;28;20494;-76
2022/12/13 06:49:02;;;;;;;29.83;12.50;;;-4.30;99.90;;;;;;5050083;28;20017;-76
2022/12/13 06:51:27;;;;;;;21.50;11.80;;;-4.30;99.90;;;;;;5042527;28;20021;-76
2022/12/13 06:53:53;;;;;;;26.17;12.68;;;-4.20;99.90;;;;;;5040849;28;20442;-76
2022/12/13 06:56:18;;;;;;;29.20;13.90;;;-4.20;99.90;;;;;;5043114;28;20036;-75
2022/12/13 06:58:44;;;;;;;28.98;14.98;;;-4.20;99.90;;;;;;5043491;28;20538;-76
2022/12/13 07:01:16;;;;;;;31.30;14.90;;;-4.20;99.90;;;;;;5045436;28;20029;-75
2022/12/13 07:03:42;;;;;;;27.13;13.73;;;-4.20;99.90;;;;;;5044985;28;20022;-78
2022/12/13 07:06:19;;;;;;;31.02;14.23;;;-4.20;99.90;;;;;;5049464;28;20263;-78
2022/12/13 07:08:49;;;;;;;50.65;20.67;;;-4.10;99.90;;;;;;5044489;28;20111;-78
2022/12/13 07:11:16;;;;;;;33.72;15.35;;;-4.10;99.90;;;;;;5044738;28;20018;-78
2022/12/13 07:13:43;;;;;;;44.30;20.63;;;-4.20;99.90;;;;;;5044875;28;20422;-78
2022/12/13 07:16:10;;;;;;;31.80;14.85;;;-4.20;99.90;;;;;;5055623;28;20025;-76
2022/12/13 07:18:35;;;;;;;33.22;14.55;;;-4.20;99.90;;;;;;5056012;28;20506;-76
2022/12/13 07:21:05;;;;;;;31.00;16.15;;;-4.10;99.90;;;;;;5052760;28;20017;-75
2022/12/13 07:23:30;;;;;;;25.30;13.52;;;-4.10;99.90;;;;;;5063666;28;20522;-75
2022/12/13 07:25:56;;;;;;;24.00;14.10;;;-4.10;99.90;;;;;;5071042;28;20108;-76
2022/12/13 07:28:22;;;;;;;26.50;12.93;;;-4.10;99.90;;;;;;5033341;28;20045;-78
2022/12/13 07:30:48;;;;;;;41.10;17.02;;;-4.10;99.90;;;;;;5047239;28;20037;-77
2022/12/13 07:43:57;;;;;;;34.78;17.60;;;-4.10;99.90;;;;;;5135079;27;21374;-77
2022/12/13 07:46:23;;;;;;;38.60;17.85;;;-3.90;99.90;;;;;;5111161;28;20031;-75
2022/12/13 07:48:49;;;;;;;30.85;17.00;;;-3.80;99.90;;;;;;5109421;27;20055;-75
2022/12/13 07:51:15;;;;;;;55.10;24.50;;;-3.80;99.90;;;;;;5106799;28;20048;-75
2022/12/13 07:53:40;;;;;;;34.70;17.95;;;-3.90;99.90;;;;;;5109770;28;20081;-75
2022/12/13 07:56:09;;;;;;;50.33;23.65;;;-3.90;99.90;;;;;;5109376;28;20484;-77
2022/12/13 07:58:35;;;;;;;39.20;17.67;;;-3.90;99.90;;;;;;5110356;28;20103;-76
2022/12/13 08:01:06;;;;;;;33.25;16.75;;;-3.90;99.90;;;;;;5109399;28;20572;-75
2022/12/13 08:03:33;;;;;;;42.05;20.38;;;-3.90;99.90;;;;;;5109245;28;20020;-77
2022/12/13 08:06:10;;;;;;;44.47;24.85;;;-3.80;99.90;;;;;;5110690;28;20103;-76
2022/12/13 08:08:37;;;;;;;35.55;19.20;;;-3.80;99.90;;;;;;5110217;28;20035;-77
2022/12/13 08:11:11;;;;;;;31.60;15.75;;;-3.70;99.90;;;;;;5109695;28;20050;-78
2022/12/13 08:13:38;;;;;;;40.47;17.38;;;-3.80;99.90;;;;;;5109384;28;20027;-77
2022/12/13 08:16:06;;;;;;;37.45;18.58;;;-3.80;99.90;;;;;;5109354;28;20020;-77
2022/12/13 08:18:32;;;;;;;34.03;18.92;;;-3.90;99.90;;;;;;5110299;28;20052;-75
2022/12/13 08:20:59;;;;;;;30.77;16.13;;;-3.80;99.90;;;;;;5108811;28;20127;-76
2022/12/13 08:23:25;;;;;;;26.77;15.05;;;-3.80;99.90;;;;;;5110097;28;20035;-75
2022/12/13 08:25:54;;;;;;;27.00;13.50;;;-3.70;99.90;;;;;;5107584;28;20066;-76
2022/12/13 08:28:22;;;;;;;39.50;17.27;;;-3.70;99.90;;;;;;5108417;28;20019;-75
2022/12/13 08:30:48;;;;;;;25.25;12.57;;;-3.80;99.90;;;;;;5107620;28;20110;-76
2022/12/13 08:33:14;;;;;;;32.47;14.52;;;-3.70;99.90;;;;;;5107108;28;20024;-75
2022/12/13 08:35:39;;;;;;;25.35;13.80;;;-3.70;99.90;;;;;;5106024;28;20019;-75
2022/12/13 08:38:06;;;;;;;24.05;11.55;;;-3.70;99.90;;;;;;5105279;28;20233;-76
2022/12/13 08:40:31;;;;;;;25.38;11.63;;;-3.70;99.90;;;;;;5099599;28;20109;-76
2022/12/13 08:42:57;;;;;;;20.10;11.25;;;-3.80;99.90;;;;;;5110538;28;20115;-78
2022/12/13 08:45:23;;;;;;;20.23;10.55;;;-3.80;99.90;;;;;;5113607;28;20030;-78
2022/12/13 08:47:48;;;;;;;17.75;10.02;;;-3.80;99.90;;;;;;5114753;28;20156;-79
2022/12/13 08:50:14;;;;;;;17.98;9.45;;;-3.80;99.90;;;;;;5105043;28;20012;-76
2022/12/13 08:52:41;;;;;;;17.25;10.07;;;-3.90;99.90;;;;;;5095231;28;20120;-77
2022/12/13 08:55:16;;;;;;;16.45;8.82;;;-3.90;99.90;;;;;;5104201;28;20111;-76
2022/12/13 08:57:44;;;;;;;17.50;9.18;;;-3.90;99.90;;;;;;5111150;28;20384;-76
2022/12/13 09:00:15;;;;;;;18.77;9.75;;;-3.90;99.90;;;;;;5115806;27;20028;-75
2022/12/13 09:02:41;;;;;;;12.40;8.57;;;-3.80;99.90;;;;;;5106502;28;20050;-76
2022/12/13 09:05:07;;;;;;;13.25;8.10;;;-3.80;99.90;;;;;;5094169;28;20461;-77
2022/12/13 09:07:39;;;;;;;20.00;10.05;;;-3.70;99.90;;;;;;5098469;28;20016;-77
2022/12/13 09:10:06;;;;;;;16.67;9.03;;;-3.70;99.90;;;;;;5094096;28;20028;-76
2022/12/13 09:12:31;;;;;;;15.82;8.77;;;-3.60;99.90;;;;;;5093314;28;20534;-78
2022/12/13 09:14:57;;;;;;;15.63;8.77;;;-3.60;99.90;;;;;;5095477;28;20028;-78
2022/12/13 09:17:22;;;;;;;11.10;8.27;;;-3.50;99.90;;;;;;5114228;28;20016;-78
2022/12/13 09:19:48;;;;;;;15.20;8.68;;;-3.60;99.90;;;;;;5108551;28;20043;-79
2022/12/13 09:22:15;;;;;;;13.32;8.60;;;-3.60;99.90;;;;;;5098443;28;20051;-78
2022/12/13 09:24:40;;;;;;;14.60;9.00;;;-3.70;99.90;;;;;;5108234;28;20471;-77
2022/12/13 09:27:08;;;;;;;14.90;8.30;;;-3.70;99.90;;;;;;5107723;28;20073;-76
2022/12/13 09:29:34;;;;;;;19.67;9.95;;;-3.80;99.90;;;;;;5093485;28;20051;-77
2022/12/13 09:32:00;;;;;;;24.45;12.27;;;-3.80;99.90;;;;;;5094084;28;20067;-76
2022/12/13 09:34:26;;;;;;;12.52;7.18;;;-3.90;99.90;;;;;;5090098;28;20032;-78
2022/12/13 09:36:51;;;;;;;12.27;7.38;;;-3.90;99.90;;;;;;5092645;28;20031;-80
2022/12/13 09:39:17;;;;;;;13.65;8.57;;;-3.90;99.90;;;;;;5092032;28;20059;-79
2022/12/13 09:41:50;;;;;;;12.82;7.68;;;-3.80;99.90;;;;;;5090954;28;20392;-79
2022/12/13 09:44:22;;;;;;;15.15;8.48;;;-3.90;99.90;;;;;;5093908;28;20024;-77
2022/12/13 09:46:48;;;;;;;14.98;9.02;;;-3.90;99.90;;;;;;5094127;28;20042;-77
2022/12/13 09:49:37;;;;;;;18.45;10.00;;;-3.80;99.90;;;;;;5094529;28;20484;-77
2022/12/13 09:52:05;;;;;;;18.50;9.73;;;-3.80;99.90;;;;;;5091481;28;20028;-78
2022/12/13 09:54:32;;;;;;;12.73;7.78;;;-3.80;99.90;;;;;;5090837;28;20024;-77
2022/12/13 09:56:58;;;;;;;11.85;8.75;;;-3.80;99.90;;;;;;5090115;28;20038;-77
2022/12/13 09:59:28;;;;;;;21.80;12.55;;;-3.80;99.90;;;;;;5090739;28;20028;-77
2022/12/13 10:01:56;;;;;;;25.17;10.90;;;-3.70;99.90;;;;;;5091516;28;20027;-77
2022/12/13 10:04:22;;;;;;;25.85;16.25;;;-3.60;99.90;;;;;;5091696;28;20477;-77
2022/12/13 10:06:56;;;;;;;27.73;16.75;;;-3.70;99.90;;;;;;5092650;28;20024;-78
2022/12/13 10:09:22;;;;;;;19.35;13.65;;;-3.70;99.90;;;;;;5089154;28;20484;-77
2022/12/13 10:11:52;;;;;;;17.60;10.10;;;-3.60;99.90;;;;;;5092561;28;20481;-77
2022/12/13 10:14:18;;;;;;;18.23;9.55;;;-3.60;99.90;;;;;;5088817;28;20388;-76
2022/12/13 10:16:48;;;;;;;17.63;10.23;;;-3.60;99.90;;;;;;5091487;28;20020;-78
2022/12/13 10:19:32;;;;;;;28.85;14.48;;;-3.50;99.90;;;;;;5093098;28;20027;-78
2022/12/13 10:22:01;;;;;;;57.10;25.33;;;-3.40;99.90;;;;;;5090039;28;20023;-78
2022/12/13 10:24:32;;;;;;;20.60;10.50;;;-3.40;99.90;;;;;;5094227;28;20020;-78
2022/12/13 10:27:12;;;;;;;16.92;9.18;;;-3.40;99.90;;;;;;5094181;28;20027;-77
2022/12/13 10:30:03;;;;;;;14.38;8.68;;;-3.40;99.90;;;;;;5093810;28;20024;-78
2022/12/13 10:32:33;;;;;;;17.92;10.60;;;-3.20;99.90;;;;;;5105349;28;20036;-77
2022/12/13 10:34:59;;;;;;;11.80;7.20;;;-3.10;99.90;;;;;;5104507;28;20019;-78
2022/12/13 10:37:30;;;;;;;15.10;9.18;;;-3.30;99.90;;;;;;5099522;28;20027;-77
2022/12/13 10:39:57;;;;;;;14.07;9.52;;;-3.40;99.90;;;;;;5097525;28;20024;-77
2022/12/13 10:42:22;;;;;;;14.70;8.82;;;-3.30;99.90;;;;;;5085026;28;20063;-78
2022/12/13 10:44:48;;;;;;;53.50;28.65;;;-3.20;99.90;;;;;;5090875;28;20020;-78
2022/12/13 10:47:20;;;;;;;23.05;16.10;;;-3.10;99.90;;;;;;5090893;28;20020;-78
2022/12/13 10:49:52;;;;;;;19.88;10.75;;;-3.10;99.90;;;;;;5090387;28;20035;-78
2022/12/13 10:52:46;;;;;;;15.82;8.48;;;-3.10;99.90;;;;;;5090346;28;20550;-78
2022/12/13 10:55:29;;;;;;;14.40;10.18;;;-3.20;99.90;;;;;;5079895;28;20043;-78
2022/12/13 10:58:17;;;;;;;13.35;10.80;;;-3.20;99.90;;;;;;5092990;28;20027;-78
2022/12/13 11:00:45;;;;;;;15.73;9.93;;;-3.10;99.90;;;;;;5095940;28;20035;-78
2022/12/13 11:03:32;;;;;;;15.82;8.60;;;-3.20;99.90;;;;;;5088875;28;20509;-78
2022/12/13 11:06:14;;;;;;;15.63;8.18;;;-3.20;99.90;;;;;;5103170;28;20379;-78
2022/12/13 11:08:40;;;;;;;16.60;9.35;;;-3.40;99.90;;;;;;5113431;28;20408;-79
2022/12/13 11:11:07;;;;;;;22.23;12.43;;;-3.50;99.90;;;;;;5109574;28;20110;-78
2022/12/13 11:13:53;;;;;;;15.57;10.77;;;-3.40;99.90;;;;;;5093356;28;20068;-78
2022/12/13 11:16:28;;;;;;;30.95;17.38;;;-3.40;99.90;;;;;;5088866;28;20496;-77
2022/12/13 11:18:56;;;;;;;200.57;77.28;;;-3.40;99.90;;;;;;5083370;28;20057;-78
2022/12/13 11:21:25;;;;;;;95.75;38.00;;;-3.50;99.90;;;;;;5091617;28;20392;-77
2022/12/13 11:23:51;;;;;;;57.17;23.35;;;-3.60;99.90;;;;;;5092549;28;20028;-78
2022/12/13 11:26:21;;;;;;;33.83;17.92;;;-3.60;99.90;;;;;;5093530;28;20099;-78
2022/12/13 11:29:03;;;;;;;48.22;19.13;;;-3.60;99.90;;;;;;5092120;28;20027;-77
2022/12/13 11:31:39;;;;;;;61.13;23.42;;;-3.60;99.90;;;;;;5093362;28;20017;-77
2022/12/13 11:34:14;;;;;;;44.65;19.92;;;-3.60;99.90;;;;;;5092925;28;20054;-77
2022/12/13 11:36:54;;;;;;;79.22;29.42;;;-3.60;99.90;;;;;;5113221;28;20041;-78
2022/12/13 11:39:31;;;;;;;123.40;42.33;;;-3.60;99.90;;;;;;5111664;28;20396;-78
2022/12/13 11:42:25;;;;;;;141.63;49.67;;;-3.70;99.90;;;;;;5101213;28;20185;-78
2022/12/13 11:44:53;;;;;;;;;;;-3.70;99.90;;;;;;5091897;28;20025;-78
2022/12/13 11:47:25;;;;;;;161.75;64.93;;;-3.80;99.90;;;;;;5091433;28;20319;-78
2022/12/13 11:49:51;;;;;;;144.82;45.63;;;-3.80;99.90;;;;;;5091456;28;20016;-78
2022/12/13 11:52:27;;;;;;;94.03;35.78;;;-3.80;99.90;;;;;;5091024;28;20533;-78
2022/12/13 11:54:57;;;;;;;239.07;73.85;;;-3.70;99.90;;;;;;5093043;28;20069;-78
2022/12/13 11:57:53;;;;;;;204.15;65.13;;;-3.70;99.90;;;;;;5091734;28;20036;-78
2022/12/13 12:00:36;;;;;;;193.68;64.32;;;-3.60;99.90;;;;;;5093040;28;20032;-78
2022/12/13 12:03:16;;;;;;;166.60;60.13;;;-3.60;99.90;;;;;;5092887;28;20052;-78
2022/12/13 12:05:50;;;;;;;146.38;49.70;;;-3.50;99.90;;;;;;5092925;28;20020;-78
2022/12/13 12:08:36;;;;;;;167.85;60.85;;;-3.50;99.90;;;;;;5092971;28;20048;-78
2022/12/13 12:11:12;;;;;;;127.90;48.80;;;-3.40;99.90;;;;;;5093040;28;20039;-78
2022/12/13 12:13:49;;;;;;;188.77;64.38;;;-3.40;99.90;;;;;;5092684;28;20060;-78
2022/12/13 12:16:39;;;;;;;103.05;37.10;;;-3.40;99.90;;;;;;5091815;28;20393;-77
2022/12/13 12:19:17;;;;;;;108.00;42.63;;;-3.40;99.90;;;;;;5094483;28;20056;-78
2022/12/13 12:22:08;;;;;;;64.53;31.15;;;-3.30;99.90;;;;;;5096656;28;20020;-77
2022/12/13 12:24:46;;;;;;;71.53;32.30;;;-3.30;99.90;;;;;;5095155;28;20378;-78
2022/12/13 12:27:55;;;;;;;76.57;31.42;;;-3.30;99.90;;;;;;5096889;28;20059;-78
2022/12/13 12:30:37;;;;;;;81.97;34.47;;;-3.40;99.90;;;;;;5096527;28;20128;-78
2022/12/13 12:33:18;;;;;;;76.25;29.70;;;-3.50;99.90;;;;;;5095005;28;20043;-78
2022/12/13 12:36:05;;;;;;;62.67;27.73;;;-3.60;99.90;;;;;;5096411;28;20065;-78
2022/12/13 12:39:01;;;;;;;57.25;26.38;;;-3.70;99.90;;;;;;5094803;28;20020;-79
2022/12/13 12:41:44;;;;;;;56.97;28.30;;;-3.60;99.90;;;;;;5103120;28;20024;-78
2022/12/13 12:44:41;;;;;;;40.35;20.45;;;-3.60;99.90;;;;;;5116571;28;20046;-78
2022/12/13 12:47:21;;;;;;;32.42;16.75;;;-3.50;99.90;;;;;;5116652;28;20062;-78
2022/12/13 12:50:01;;;;;;;46.78;24.58;;;-3.60;99.90;;;;;;5115129;28;20496;-77
2022/12/13 12:52:37;;;;;;;35.30;19.60;;;-3.50;99.90;;;;;;5115031;28;20038;-78
2022/12/13 12:55:05;;;;;;;35.33;18.15;;;-3.60;99.90;;;;;;5115094;28;20031;-78
2022/12/13 12:58:06;;;;;;;40.35;18.95;;;-3.70;99.90;;;;;;5115109;28;20020;-78
2022/12/13 13:00:59;;;;;;;34.38;19.35;;;-3.70;99.90;;;;;;5115033;28;20063;-78